createdAt,value
2023-02-18T00:00:17.673Z,46.08
2023-02-18T00:05:20.053Z,46.38
2023-02-18T00:10:22.037Z,46.43
2023-02-18T00:15:23.923Z,46.17
2023-02-18T00:20:25.913Z,46.21
2023-02-18T00:25:27.764Z,46.22
2023-02-18T00:30:29.880Z,45.91
2023-02-18T00:35:31.936Z,46.02
2023-02-18T00:40:37.350Z,45.89
2023-02-18T00:45:39.485Z,45.98
2023-02-18T00:50:41.532Z,45.89
2023-02-18T00:55:45.565Z,46.06
2023-02-18T01:00:48.118Z,46.03
2023-02-18T01:05:51.328Z,45.75
2023-02-18T01:10:57.517Z,45.98
2023-02-18T01:15:59.729Z,46.09
2023-02-18T01:21:01.979Z,45.96
2023-02-18T01:26:04.025Z,45.84
2023-02-18T01:31:08.145Z,45.87
2023-02-18T01:36:11.784Z,46.05
2023-02-18T01:41:14.057Z,45.85
2023-02-18T01:46:21.807Z,46.07
2023-02-18T01:51:25.518Z,46.16
2023-02-18T01:56:33.896Z,46.18
2023-02-18T02:01:36.549Z,45.89
2023-02-18T02:06:38.474Z,46.12
2023-02-18T02:11:45.135Z,45.82
2023-02-18T02:17:15.486Z,46.19
2023-02-18T02:22:38.708Z,45.96
2023-02-18T02:27:55.792Z,45.85
2023-02-18T02:33:45.254Z,45.78
2023-02-18T02:39:00.709Z,45.83
2023-02-18T02:44:22.616Z,45.97
2023-02-18T02:49:27.350Z,45.92
2023-02-18T02:54:29.372Z,46.10
2023-02-18T02:59:32.294Z,46.17
2023-02-18T03:04:39.686Z,46.13
2023-02-18T03:10:10.430Z,46.23
2023-02-18T03:15:12.518Z,45.85
2023-02-18T03:20:24.389Z,46.04
2023-02-18T03:25:27.157Z,46.07
2023-02-18T03:30:46.789Z,45.86
2023-02-18T03:35:50.229Z,46.23
2023-02-18T03:40:52.576Z,46.22
2023-02-18T03:45:54.851Z,46.16
2023-02-18T03:50:56.859Z,46.07
2023-02-18T03:55:58.926Z,46.25
2023-02-18T04:01:00.795Z,46.30
2023-02-18T04:06:02.900Z,46.16
2023-02-18T04:11:05.486Z,46.17
2023-02-18T04:16:08.047Z,46.10
2023-02-18T04:21:10.209Z,46.29
2023-02-18T04:26:12.142Z,46.30
2023-02-18T04:31:14.246Z,46.05
2023-02-18T04:36:16.143Z,45.98
2023-02-18T04:41:21.049Z,45.98
2023-02-18T04:46:23.083Z,46.02
2023-02-18T04:51:25.116Z,46.22
2023-02-18T04:56:27.042Z,46.21
2023-02-18T05:01:29.010Z,46.03
2023-02-18T05:06:30.867Z,46.23
2023-02-18T05:11:33.058Z,46.17
2023-02-18T05:16:35.076Z,46.31
2023-02-18T05:21:36.936Z,46.30
2023-02-18T05:26:38.791Z,46.14
2023-02-18T05:31:40.921Z,46.19
2023-02-18T05:36:42.911Z,46.33
2023-02-18T05:41:44.923Z,46.20
2023-02-18T05:46:47.124Z,46.37
2023-02-18T05:51:49.247Z,46.22
2023-02-18T05:56:51.637Z,46.40
2023-02-18T06:01:54.156Z,46.36
2023-02-18T06:06:56.410Z,45.99
2023-02-18T06:11:58.413Z,46.36
2023-02-18T06:17:00.334Z,46.15
2023-02-18T06:22:02.262Z,46.35
2023-02-18T06:27:04.730Z,46.05
2023-02-18T06:32:06.916Z,46.06
2023-02-18T06:37:09.129Z,46.23
2023-02-18T06:42:11.283Z,46.18
2023-02-18T06:47:13.078Z,46.23
2023-02-18T06:52:15.199Z,46.34
2023-02-18T06:57:17.086Z,46.86
2023-02-18T07:02:19.216Z,47.60
2023-02-18T07:07:21.171Z,48.18
2023-02-18T07:12:23.215Z,49.77
2023-02-18T07:17:25.089Z,51.17
2023-02-18T07:22:27.128Z,50.73
2023-02-18T07:27:28.929Z,50.03
2023-02-18T07:32:31.057Z,49.73
2023-02-18T07:37:33.040Z,49.52
2023-02-18T07:42:35.007Z,49.35
2023-02-18T07:47:36.830Z,49.18
2023-02-18T07:52:38.663Z,47.96
2023-02-18T07:57:57.542Z,48.42
2023-02-18T08:02:59.558Z,47.72
2023-02-18T08:08:01.485Z,47.57
2023-02-18T08:13:03.355Z,47.38
2023-02-18T08:18:06.170Z,47.55
2023-02-18T08:23:08.319Z,47.54
2023-02-18T08:28:10.286Z,47.45
2023-02-18T08:33:12.257Z,47.61
2023-02-18T08:38:14.496Z,47.29
2023-02-18T08:43:17.877Z,47.85
2023-02-18T08:48:20.563Z,47.93
2023-02-18T08:53:22.892Z,47.59
2023-02-18T08:58:24.979Z,47.66
2023-02-18T09:03:27.419Z,47.51
2023-02-18T09:08:29.674Z,47.22
2023-02-18T09:13:33.507Z,46.97
2023-02-18T09:18:36.384Z,46.84
2023-02-18T09:23:39.034Z,46.78
2023-02-18T09:28:41.504Z,46.91
2023-02-18T09:33:51.125Z,46.75
2023-02-18T09:38:53.814Z,46.66
2023-02-18T09:44:05.875Z,46.71
2023-02-18T09:49:15.918Z,46.71
2023-02-18T09:54:20.388Z,46.54
2023-02-18T09:59:25.630Z,46.26
2023-02-18T10:04:43.206Z,46.63
2023-02-18T10:09:46.686Z,47.25
2023-02-18T10:14:52.691Z,47.36
2023-02-18T10:19:57.357Z,47.43
2023-02-18T10:25:03.684Z,48.15
2023-02-18T10:30:33.315Z,48.00
2023-02-18T10:35:45.663Z,47.54
2023-02-18T10:41:02.981Z,47.21
2023-02-18T10:46:35.566Z,47.22
2023-02-18T10:51:43.795Z,47.13
2023-02-18T10:56:50.641Z,47.18
2023-02-18T11:02:02.254Z,47.29
2023-02-18T11:07:08.451Z,47.23
2023-02-18T11:12:33.215Z,47.66
2023-02-18T11:17:38.151Z,47.29
2023-02-18T11:22:42.016Z,47.66
2023-02-18T11:27:51.781Z,47.34
2023-02-18T11:33:18.073Z,47.28
2023-02-18T11:38:56.497Z,47.68
2023-02-18T11:43:59.318Z,47.44
2023-02-18T11:49:36.681Z,47.69
2023-02-18T11:54:38.489Z,47.42
2023-02-18T11:59:42.936Z,47.47
2023-02-18T12:04:54.242Z,47.44
2023-02-18T12:10:33.416Z,47.44
2023-02-18T12:15:48.942Z,47.44
2023-02-18T12:20:57.085Z,47.74
2023-02-18T12:26:01.690Z,47.65
2023-02-18T12:31:37.829Z,47.67
2023-02-18T12:37:21.005Z,47.81
2023-02-18T12:42:25.558Z,47.95
2023-02-18T12:47:56.335Z,47.75
2023-02-18T12:53:17.287Z,48.00
2023-02-18T12:58:19.204Z,48.03
2023-02-18T13:03:39.603Z,48.24
2023-02-18T13:08:56.600Z,48.36
2023-02-18T13:14:11.121Z,48.09
2023-02-18T13:19:30.190Z,48.46
2023-02-18T13:24:37.906Z,48.45
2023-02-18T13:30:28.049Z,48.42
2023-02-18T13:35:38.469Z,47.75
2023-02-18T13:40:41.474Z,48.38
2023-02-18T13:45:43.274Z,48.39
2023-02-18T13:50:45.159Z,48.36
2023-02-18T13:56:00.916Z,47.85
2023-02-18T14:01:24.627Z,47.87
2023-02-18T14:06:33.253Z,47.88
2023-02-18T14:11:41.306Z,47.50
2023-02-18T14:17:20.523Z,47.23
2023-02-18T14:22:44.134Z,47.18
2023-02-18T14:27:46.975Z,47.28
2023-02-18T14:32:53.190Z,47.34
2023-02-18T14:37:58.150Z,46.92
2023-02-18T14:43:32.476Z,46.86
2023-02-18T14:48:56.993Z,46.97
2023-02-18T14:54:06.374Z,46.85
2023-02-18T14:59:08.876Z,46.66
2023-02-18T15:04:15.583Z,46.63
2023-02-18T15:09:22.710Z,46.64
2023-02-18T15:14:37.270Z,47.79
2023-02-18T15:19:51.439Z,47.80
2023-02-18T15:24:55.592Z,47.48
2023-02-18T15:30:29.416Z,47.44
2023-02-18T15:35:33.382Z,47.35
2023-02-18T15:40:38.994Z,47.07
2023-02-18T15:45:44.107Z,47.05
2023-02-18T15:50:51.508Z,47.11
2023-02-18T15:55:54.932Z,47.06
2023-02-18T16:01:05.440Z,46.69
2023-02-18T16:06:13.409Z,46.70
2023-02-18T16:11:15.525Z,46.55
2023-02-18T16:16:33.902Z,46.68
2023-02-18T16:21:40.503Z,46.93
2023-02-18T16:26:45.146Z,46.57
2023-02-18T16:31:47.428Z,46.93
2023-02-18T16:37:08.493Z,47.14
2023-02-18T16:42:11.933Z,46.64
2023-02-18T16:47:17.155Z,46.51
2023-02-18T16:52:19.694Z,46.51
2023-02-18T16:57:21.831Z,46.57
2023-02-18T17:02:23.801Z,46.80
2023-02-18T17:07:25.818Z,47.09
2023-02-18T17:12:27.866Z,46.99
2023-02-18T17:17:29.627Z,46.99
2023-02-18T17:22:31.347Z,46.69
2023-02-18T17:27:33.790Z,46.48
2023-02-18T17:32:35.780Z,46.53
2023-02-18T17:37:37.831Z,46.50
2023-02-18T17:42:39.870Z,46.47
2023-02-18T17:47:41.833Z,46.41
2023-02-18T17:52:44.036Z,46.14
2023-02-18T17:57:46.427Z,46.29
2023-02-18T18:02:48.750Z,45.79
2023-02-18T18:07:52.000Z,47.09
2023-02-18T18:12:54.875Z,46.95
2023-02-18T18:17:58.452Z,47.58
2023-02-18T18:23:03.170Z,47.74
2023-02-18T18:28:06.510Z,47.76
2023-02-18T18:33:21.139Z,47.74
2023-02-18T18:38:25.172Z,47.22
2023-02-18T18:43:32.726Z,47.29
2023-02-18T18:48:35.089Z,47.10
2023-02-18T18:53:37.046Z,47.32
2023-02-18T18:58:39.492Z,47.00
2023-02-18T19:03:42.750Z,47.11
2023-02-18T19:08:45.903Z,47.28
2023-02-18T19:13:48.028Z,47.34
2023-02-18T19:18:50.055Z,47.44
2023-02-18T19:23:51.988Z,47.10
2023-02-18T19:28:53.766Z,47.38
2023-02-18T19:33:56.162Z,47.16
2023-02-18T19:38:58.174Z,47.38
2023-02-18T19:44:00.017Z,47.16
2023-02-18T19:49:02.197Z,47.42
2023-02-18T19:54:04.111Z,47.64
2023-02-18T19:59:05.832Z,47.46
2023-02-18T20:04:08.041Z,47.43
2023-02-18T20:09:10.063Z,47.32
2023-02-18T20:14:11.943Z,47.29
2023-02-18T20:19:14.289Z,47.26
2023-02-18T20:24:22.684Z,47.20
2023-02-18T20:34:36.388Z,47.32
2023-02-18T20:39:41.022Z,47.23
2023-02-18T20:44:50.042Z,47.31
2023-02-18T20:49:54.459Z,47.54
2023-02-18T20:54:56.328Z,47.69
2023-02-18T20:59:58.921Z,51.13
2023-02-18T21:05:00.892Z,49.65
2023-02-18T21:10:04.341Z,50.00
2023-02-18T21:15:07.038Z,49.79
2023-02-18T21:20:09.327Z,49.66
2023-02-18T21:25:13.138Z,49.72
2023-02-18T21:30:15.484Z,49.24
2023-02-18T21:35:18.052Z,48.87
2023-02-18T21:40:20.208Z,48.95
2023-02-18T21:45:22.242Z,49.21
2023-02-18T21:50:24.468Z,49.07
2023-02-18T21:55:26.422Z,49.03
2023-02-18T22:00:28.464Z,48.67
2023-02-18T22:05:31.878Z,48.64
2023-02-18T22:10:33.864Z,48.79
2023-02-18T22:15:35.836Z,48.65
2023-02-18T22:20:39.184Z,48.58
2023-02-18T22:25:41.135Z,48.64
2023-02-18T22:30:42.944Z,48.51
2023-02-18T22:35:44.880Z,48.78
2023-02-18T22:40:49.093Z,48.72
2023-02-18T22:45:52.423Z,48.68
2023-02-18T22:50:54.632Z,48.46
2023-02-18T22:56:00.963Z,48.45
2023-02-18T23:01:03.275Z,48.66
2023-02-18T23:06:06.412Z,48.50
2023-02-18T23:11:11.715Z,48.63
2023-02-18T23:16:15.098Z,48.47
2023-02-18T23:21:22.857Z,48.67
2023-02-18T23:26:25.988Z,48.63
2023-02-18T23:31:28.939Z,48.47
2023-02-18T23:36:32.826Z,48.71
2023-02-18T23:41:36.200Z,48.68
2023-02-18T23:46:38.554Z,48.35
2023-02-18T23:51:40.706Z,48.34
2023-02-18T23:56:42.806Z,48.69
